createdAt,value
2019-06-07T00:01:08.473Z,8.79
2019-06-07T00:06:20.404Z,7.39
2019-06-07T00:11:22.166Z,6.34
2019-06-07T00:16:29.953Z,7.58
2019-06-07T00:22:13.658Z,6.42
2019-06-07T00:26:57.687Z,6.98
2019-06-07T00:31:53.138Z,9.72
2019-06-07T00:37:00.901Z,7.10
2019-06-07T00:42:08.548Z,7.09
2019-06-07T00:47:18.750Z,9.35
2019-06-07T00:53:11.657Z,9.07
2019-06-07T00:57:30.671Z,7.85
2019-06-07T01:02:38.372Z,8.08
2019-06-07T01:07:46.158Z,7.17
2019-06-07T01:12:56.967Z,8.66
2019-06-07T01:23:01.808Z,7.89
2019-06-07T01:28:09.596Z,8.89
2019-06-07T01:33:18.331Z,8.08
2019-06-07T01:38:30.506Z,7.78
2019-06-07T01:43:30.457Z,7.61
2019-06-07T01:48:48.845Z,8.11
2019-06-07T01:53:42.361Z,8.94
2019-06-07T01:58:50.174Z,8.90
2019-06-07T02:03:57.892Z,8.35
2019-06-07T02:09:05.661Z,8.91
2019-06-07T02:14:13.352Z,9.97
2019-06-07T02:19:22.046Z,7.77
2019-06-07T02:24:29.641Z,7.77
2019-06-07T02:29:35.475Z,8.04
2019-06-07T02:34:43.300Z,7.55
2019-06-07T02:39:51.272Z,7.92
2019-06-07T02:44:58.976Z,9.38
2019-06-07T02:50:06.756Z,13.04
2019-06-07T02:55:15.176Z,10.17
2019-06-07T03:00:40.575Z,9.35
2019-06-07T03:05:34.194Z,9.93
2019-06-07T03:10:40.288Z,10.14
2019-06-07T03:15:49.814Z,8.87
2019-06-07T03:21:05.007Z,9.88
2019-06-07T03:25:59.584Z,10.42
2019-06-07T03:31:07.438Z,10.03
2019-06-07T03:36:23.809Z,10.08
2019-06-07T03:41:22.514Z,10.70
2019-06-07T03:46:34.321Z,10.53
2019-06-07T03:51:39.730Z,10.35
2019-06-07T03:56:44.761Z,10.36
2019-06-07T04:01:52.625Z,9.92
2019-06-07T04:07:01.241Z,9.98
2019-06-07T04:12:07.598Z,14.61
2019-06-07T04:17:15.246Z,13.99
2019-06-07T04:22:23.018Z,16.23
2019-06-07T04:27:30.825Z,14.33
2019-06-07T04:32:40.599Z,14.32
2019-06-07T04:37:45.826Z,14.34
2019-06-07T04:42:53.433Z,12.29
2019-06-07T04:48:01.251Z,14.01
2019-06-07T04:53:08.777Z,11.97
2019-06-07T04:58:15.720Z,12.19
2019-06-07T05:03:23.441Z,14.33
2019-06-07T05:08:33.267Z,10.73
2019-06-07T05:13:41.444Z,11.93
2019-06-07T05:18:46.737Z,8.52
2019-06-07T05:24:07.502Z,9.34
2019-06-07T05:29:01.790Z,10.07
2019-06-07T05:34:14.176Z,7.66
2019-06-07T05:39:11.830Z,8.92
2019-06-07T05:44:19.599Z,5.78
2019-06-07T05:49:27.268Z,6.56
2019-06-07T05:54:36.091Z,8.40
2019-06-07T05:59:44.865Z,7.30
2019-06-07T06:04:52.914Z,7.39
2019-06-07T06:09:50.634Z,8.31
2019-06-07T06:14:58.433Z,10.06
2019-06-07T06:20:06.123Z,9.99
2019-06-07T06:25:31.829Z,10.03
2019-06-07T06:30:21.297Z,8.02
2019-06-07T06:35:29.002Z,9.24
2019-06-07T06:40:38.914Z,7.81
2019-06-07T06:45:48.688Z,8.31
2019-06-07T06:50:52.812Z,6.86
2019-06-07T06:55:59.655Z,6.90
2019-06-07T07:01:07.389Z,5.21
2019-06-07T07:06:25.899Z,7.01
2019-06-07T07:11:23.474Z,8.21
2019-06-07T07:16:30.260Z,5.83
2019-06-07T07:21:37.896Z,8.62
2019-06-07T07:26:48.190Z,5.47
2019-06-07T07:31:56.194Z,6.42
2019-06-07T07:37:00.425Z,5.76
2019-06-07T07:42:20.331Z,7.06
2019-06-07T07:47:15.832Z,6.83
2019-06-07T07:52:23.568Z,7.02
2019-06-07T07:57:31.236Z,6.17
2019-06-07T08:02:38.881Z,7.88
2019-06-07T08:07:49.963Z,6.42
2019-06-07T08:13:16.595Z,4.62
2019-06-07T08:18:04.156Z,5.25
2019-06-07T08:23:08.777Z,6.34
2019-06-07T08:28:16.427Z,4.99
2019-06-07T08:33:26.382Z,6.26
2019-06-07T08:38:46.952Z,7.89
2019-06-07T08:43:38.621Z,5.83
2019-06-07T08:48:46.371Z,7.72
2019-06-07T08:54:18.643Z,6.95
2019-06-07T08:59:10.765Z,8.64
2019-06-07T09:04:11.097Z,6.14
2019-06-07T09:09:15.813Z,7.08
2019-06-07T09:14:23.522Z,6.91
2019-06-07T09:19:31.294Z,4.42
2019-06-07T09:24:38.942Z,6.07
2019-06-07T09:29:46.713Z,6.01
2019-06-07T09:34:54.409Z,5.89
2019-06-07T09:40:15.385Z,4.83
2019-06-07T09:45:13.795Z,6.83
2019-06-07T09:50:16.771Z,6.49
2019-06-07T09:55:25.294Z,3.35
2019-06-07T10:00:40.933Z,7.18
2019-06-07T10:05:39.206Z,4.91
2019-06-07T10:10:46.884Z,4.55
2019-06-07T10:15:54.648Z,4.74
2019-06-07T10:21:03.794Z,8.99
2019-06-07T10:26:10.506Z,2.99
2019-06-07T10:31:18.168Z,4.11
2019-06-07T10:36:25.855Z,5.48
2019-06-07T10:41:33.527Z,4.33
2019-06-07T10:46:42.304Z,4.99
2019-06-07T10:51:49.905Z,5.44
2019-06-07T10:56:57.894Z,4.47
2019-06-07T11:02:05.853Z,4.17
2019-06-07T11:07:14.448Z,4.36
2019-06-07T11:12:22.343Z,3.86
2019-06-07T11:17:30.284Z,4.85
2019-06-07T11:22:38.145Z,4.00
2019-06-07T11:27:46.652Z,7.12
2019-06-07T11:32:55.082Z,5.38
2019-06-07T11:38:02.801Z,4.96
2019-06-07T11:43:10.786Z,3.70
2019-06-07T11:48:18.233Z,5.74
2019-06-07T11:53:25.916Z,5.79
2019-06-07T11:58:34.773Z,4.35
2019-06-07T12:03:42.489Z,4.63
2019-06-07T12:08:50.347Z,4.63
2019-06-07T12:13:58.046Z,5.02
2019-06-07T12:19:05.797Z,4.41
2019-06-07T12:24:14.165Z,5.11
2019-06-07T12:29:21.136Z,5.50
2019-06-07T12:34:28.001Z,5.03
2019-06-07T12:39:35.690Z,3.35
2019-06-07T12:44:43.313Z,3.86
2019-06-07T12:49:52.193Z,3.70
2019-06-07T12:55:00.764Z,3.11
2019-06-07T13:00:08.648Z,4.10
2019-06-07T13:05:17.914Z,4.33
2019-06-07T13:10:25.350Z,4.08
2019-06-07T13:15:33.154Z,2.67
2019-06-07T13:20:41.025Z,2.92
2019-06-07T13:25:48.729Z,3.60
2019-06-07T13:30:57.471Z,3.44
2019-06-07T13:36:05.122Z,4.24
2019-06-07T13:41:12.876Z,4.10
2019-06-07T13:46:21.053Z,3.47
2019-06-07T13:51:29.028Z,3.37
2019-06-07T13:56:36.125Z,3.21
2019-06-07T14:01:44.119Z,2.94
2019-06-07T14:06:52.008Z,7.30
2019-06-07T14:12:00.806Z,3.39
2019-06-07T14:17:08.767Z,4.29
2019-06-07T14:22:16.454Z,2.46
2019-06-07T14:27:25.458Z,3.27
2019-06-07T14:32:32.729Z,4.10
2019-06-07T14:37:38.978Z,2.51
2019-06-07T14:42:46.647Z,4.83
2019-06-07T14:47:54.494Z,3.08
2019-06-07T14:53:02.207Z,3.49
2019-06-07T14:58:10.107Z,6.70
2019-06-07T15:03:17.860Z,4.07
2019-06-07T15:08:26.526Z,3.06
2019-06-07T15:13:33.562Z,2.24
2019-06-07T15:18:40.202Z,2.96
2019-06-07T15:23:48.204Z,2.87
2019-06-07T15:28:55.994Z,2.65
2019-06-07T15:34:03.637Z,3.18
2019-06-07T15:39:12.300Z,3.19
2019-06-07T15:44:20.022Z,3.71
2019-06-07T15:49:27.830Z,3.14
2019-06-07T15:54:36.430Z,3.07
2019-06-07T15:59:43.000Z,4.72
2019-06-07T16:04:50.762Z,3.88
2019-06-07T16:09:58.636Z,5.97
2019-06-07T16:15:06.306Z,2.67
2019-06-07T16:20:14.211Z,3.74
2019-06-07T16:25:21.874Z,3.61
2019-06-07T16:30:29.693Z,4.85
2019-06-07T16:35:37.582Z,5.72
2019-06-07T16:40:45.298Z,3.82
2019-06-07T16:45:53.001Z,3.89
2019-06-07T16:51:00.753Z,2.94
2019-06-07T16:56:08.522Z,2.88
2019-06-07T17:01:16.289Z,2.78
2019-06-07T17:06:24.032Z,2.89
2019-06-07T17:11:32.809Z,4.75
2019-06-07T17:16:40.941Z,4.98
2019-06-07T17:21:49.459Z,4.01
2019-06-07T17:26:55.724Z,3.89
2019-06-07T17:32:03.488Z,4.98
2019-06-07T17:37:11.126Z,4.66
2019-06-07T17:42:18.941Z,4.45
2019-06-07T17:47:26.974Z,7.07
2019-06-07T17:52:34.705Z,8.28
2019-06-07T17:57:42.501Z,4.80
2019-06-07T18:02:50.984Z,4.51
2019-06-07T18:07:57.545Z,5.20
2019-06-07T18:13:05.328Z,4.79
2019-06-07T18:18:13.002Z,3.75
2019-06-07T18:23:20.763Z,4.20
2019-06-07T18:28:28.478Z,5.08
2019-06-07T18:33:36.290Z,4.69
2019-06-07T18:38:43.972Z,5.04
2019-06-07T18:43:52.954Z,4.14
2019-06-07T18:48:59.118Z,5.53
2019-06-07T18:54:06.890Z,4.81
2019-06-07T18:59:14.535Z,5.75
2019-06-07T19:04:22.479Z,5.52
2019-06-07T19:09:30.192Z,4.83
2019-06-07T19:14:38.046Z,4.74
2019-06-07T19:19:45.766Z,5.10
2019-06-07T19:24:54.102Z,5.06
2019-06-07T19:30:01.135Z,5.62
2019-06-07T19:35:09.284Z,5.21
2019-06-07T19:40:17.022Z,9.15
2019-06-07T19:45:30.220Z,4.65
2019-06-07T19:50:31.964Z,5.79
2019-06-07T19:55:39.794Z,5.05
2019-06-07T20:00:47.516Z,4.46
2019-06-07T20:05:56.058Z,5.26
2019-06-07T20:11:02.800Z,3.57
2019-06-07T20:16:10.446Z,5.82
2019-06-07T20:21:18.115Z,4.27
2019-06-07T20:26:25.969Z,4.59
2019-06-07T20:31:36.810Z,2.73
2019-06-07T20:36:34.572Z,3.17
2019-06-07T20:41:42.356Z,3.45
2019-06-07T20:46:50.253Z,4.54
2019-06-07T20:51:58.356Z,3.45
2019-06-07T20:57:05.261Z,3.38
2019-06-07T21:02:13.006Z,10.53
2019-06-07T21:07:21.097Z,5.41
2019-06-07T21:12:28.786Z,4.59
2019-06-07T21:17:36.679Z,5.74
2019-06-07T21:22:44.646Z,4.94
2019-06-07T21:27:52.461Z,6.70
2019-06-07T21:33:01.367Z,4.84
2019-06-07T21:38:07.833Z,4.85
2019-06-07T21:43:14.669Z,5.35
2019-06-07T21:48:22.655Z,5.71
2019-06-07T21:53:30.685Z,3.93
2019-06-07T21:58:38.564Z,3.30
2019-06-07T22:03:46.239Z,3.52
2019-06-07T22:08:54.120Z,5.29
2019-06-07T22:14:01.862Z,4.32
2019-06-07T22:19:10.779Z,3.15
2019-06-07T22:24:16.756Z,3.76
2019-06-07T22:29:24.481Z,4.29
2019-06-07T22:34:37.881Z,3.38
2019-06-07T22:39:35.526Z,3.70
2019-06-07T22:44:43.262Z,2.85
2019-06-07T22:49:51.058Z,4.89
2019-06-07T22:54:58.756Z,2.52
2019-06-07T23:00:10.189Z,3.32
2019-06-07T23:05:14.770Z,2.56
2019-06-07T23:10:21.155Z,2.77
2019-06-07T23:15:28.781Z,3.03
2019-06-07T23:20:36.536Z,3.97
2019-06-07T23:25:44.139Z,1.95
2019-06-07T23:30:51.829Z,2.63
2019-06-07T23:35:59.521Z,3.28
2019-06-07T23:41:07.375Z,2.49
2019-06-07T23:46:15.328Z,2.06
2019-06-07T23:51:22.746Z,2.25
2019-06-07T23:56:30.714Z,3.04
